sensor_id;sensor_type;location;lat;lon;timestamp;P1;durP1;ratioP1;P2;durP2;ratioP2
43990;SDS011;29654;50.784;20.604;2023-03-13T00:04:29;8.57;;;5.95;;
43990;SDS011;29654;50.784;20.604;2023-03-13T00:09:33;9.93;;;6.97;;
43990;SDS011;29654;50.784;20.604;2023-03-13T00:14:35;8.88;;;6.53;;
43990;SDS011;29654;50.784;20.604;2023-03-13T00:19:38;8.30;;;6.32;;
43990;SDS011;29654;50.784;20.604;2023-03-13T00:24:42;12.00;;;7.15;;
43990;SDS011;29654;50.784;20.604;2023-03-13T00:29:46;9.35;;;5.85;;
43990;SDS011;29654;50.784;20.604;2023-03-13T00:34:50;8.45;;;6.97;;
43990;SDS011;29654;50.784;20.604;2023-03-13T00:39:53;7.38;;;5.68;;
43990;SDS011;29654;50.784;20.604;2023-03-13T00:44:56;8.85;;;6.30;;
43990;SDS011;29654;50.784;20.604;2023-03-13T00:49:59;7.82;;;6.20;;
43990;SDS011;29654;50.784;20.604;2023-03-13T00:55:03;10.45;;;6.05;;
43990;SDS011;29654;50.784;20.604;2023-03-13T01:00:07;7.95;;;6.30;;
43990;SDS011;29654;50.784;20.604;2023-03-13T01:05:12;9.07;;;6.55;;
43990;SDS011;29654;50.784;20.604;2023-03-13T01:10:16;7.97;;;6.25;;
43990;SDS011;29654;50.784;20.604;2023-03-13T01:15:19;7.05;;;5.80;;
43990;SDS011;29654;50.784;20.604;2023-03-13T01:20:21;7.32;;;6.25;;
43990;SDS011;29654;50.784;20.604;2023-03-13T01:25:25;7.50;;;6.00;;
43990;SDS011;29654;50.784;20.604;2023-03-13T01:30:28;7.13;;;5.35;;
43990;SDS011;29654;50.784;20.604;2023-03-13T01:35:32;6.55;;;5.38;;
43990;SDS011;29654;50.784;20.604;2023-03-13T01:40:39;7.32;;;6.10;;
43990;SDS011;29654;50.784;20.604;2023-03-13T01:45:56;7.78;;;5.25;;
43990;SDS011;29654;50.784;20.604;2023-03-13T01:51:12;6.35;;;5.25;;
43990;SDS011;29654;50.784;20.604;2023-03-13T01:56:23;7.78;;;5.32;;
43990;SDS011;29654;50.784;20.604;2023-03-13T02:01:32;7.55;;;5.32;;
43990;SDS011;29654;50.784;20.604;2023-03-13T02:06:38;7.35;;;5.68;;
43990;SDS011;29654;50.784;20.604;2023-03-13T02:11:46;7.45;;;6.30;;
43990;SDS011;29654;50.784;20.604;2023-03-13T02:16:51;6.13;;;5.43;;
43990;SDS011;29654;50.784;20.604;2023-03-13T02:21:56;6.30;;;5.63;;
43990;SDS011;29654;50.784;20.604;2023-03-13T02:27:06;6.53;;;5.40;;
43990;SDS011;29654;50.784;20.604;2023-03-13T02:32:12;8.27;;;5.90;;
43990;SDS011;29654;50.784;20.604;2023-03-13T02:37:16;7.25;;;5.43;;
43990;SDS011;29654;50.784;20.604;2023-03-13T02:42:21;6.78;;;5.35;;
43990;SDS011;29654;50.784;20.604;2023-03-13T02:47:25;6.55;;;5.57;;
43990;SDS011;29654;50.784;20.604;2023-03-13T02:52:29;8.25;;;6.32;;
43990;SDS011;29654;50.784;20.604;2023-03-13T02:57:39;6.75;;;5.85;;
43990;SDS011;29654;50.784;20.604;2023-03-13T03:02:41;6.30;;;5.68;;
43990;SDS011;29654;50.784;20.604;2023-03-13T03:07:44;7.18;;;5.55;;
43990;SDS011;29654;50.784;20.604;2023-03-13T03:12:48;7.00;;;6.10;;
43990;SDS011;29654;50.784;20.604;2023-03-13T03:17:51;7.15;;;5.95;;
43990;SDS011;29654;50.784;20.604;2023-03-13T03:22:54;6.13;;;5.50;;
43990;SDS011;29654;50.784;20.604;2023-03-13T03:27:58;6.45;;;5.18;;
43990;SDS011;29654;50.784;20.604;2023-03-13T03:33:02;8.77;;;6.20;;
43990;SDS011;29654;50.784;20.604;2023-03-13T03:38:06;6.20;;;5.38;;
43990;SDS011;29654;50.784;20.604;2023-03-13T03:43:10;5.65;;;5.10;;
43990;SDS011;29654;50.784;20.604;2023-03-13T03:48:14;7.05;;;5.28;;
43990;SDS011;29654;50.784;20.604;2023-03-13T03:53:16;5.53;;;4.85;;
43990;SDS011;29654;50.784;20.604;2023-03-13T03:58:20;5.88;;;5.10;;
43990;SDS011;29654;50.784;20.604;2023-03-13T04:03:45;5.95;;;4.60;;
43990;SDS011;29654;50.784;20.604;2023-03-13T04:08:48;5.20;;;4.70;;
43990;SDS011;29654;50.784;20.604;2023-03-13T04:13:56;8.02;;;4.78;;
43990;SDS011;29654;50.784;20.604;2023-03-13T04:19:00;5.65;;;5.03;;
43990;SDS011;29654;50.784;20.604;2023-03-13T04:24:03;7.40;;;5.30;;
43990;SDS011;29654;50.784;20.604;2023-03-13T04:29:09;7.18;;;5.47;;
43990;SDS011;29654;50.784;20.604;2023-03-13T04:34:26;5.50;;;4.85;;
43990;SDS011;29654;50.784;20.604;2023-03-13T04:39:47;6.15;;;4.82;;
43990;SDS011;29654;50.784;20.604;2023-03-13T04:45:15;5.65;;;4.68;;
43990;SDS011;29654;50.784;20.604;2023-03-13T04:50:17;5.82;;;5.25;;
43990;SDS011;29654;50.784;20.604;2023-03-13T04:55:31;8.57;;;5.45;;
43990;SDS011;29654;50.784;20.604;2023-03-13T05:00:54;7.75;;;5.78;;
43990;SDS011;29654;50.784;20.604;2023-03-13T05:06:20;7.28;;;5.97;;
43990;SDS011;29654;50.784;20.604;2023-03-13T05:11:43;4.53;;;4.15;;
43990;SDS011;29654;50.784;20.604;2023-03-13T05:17:13;6.78;;;5.38;;
43990;SDS011;29654;50.784;20.604;2023-03-13T05:22:35;6.57;;;5.20;;
43990;SDS011;29654;50.784;20.604;2023-03-13T05:28:08;6.38;;;4.97;;
43990;SDS011;29654;50.784;20.604;2023-03-13T05:33:37;6.30;;;4.70;;
43990;SDS011;29654;50.784;20.604;2023-03-13T05:38:56;5.10;;;4.60;;
43990;SDS011;29654;50.784;20.604;2023-03-13T05:44:24;5.40;;;4.10;;
43990;SDS011;29654;50.784;20.604;2023-03-13T05:49:37;5.85;;;4.25;;
43990;SDS011;29654;50.784;20.604;2023-03-13T05:54:40;6.38;;;5.07;;
43990;SDS011;29654;50.784;20.604;2023-03-13T06:00:03;6.43;;;5.50;;
43990;SDS011;29654;50.784;20.604;2023-03-13T06:05:37;6.45;;;5.55;;
43990;SDS011;29654;50.784;20.604;2023-03-13T06:10:57;5.97;;;4.68;;
43990;SDS011;29654;50.784;20.604;2023-03-13T06:16:01;7.22;;;4.95;;
43990;SDS011;29654;50.784;20.604;2023-03-13T06:21:23;7.03;;;5.53;;
43990;SDS011;29654;50.784;20.604;2023-03-13T06:26:25;6.90;;;5.50;;
43990;SDS011;29654;50.784;20.604;2023-03-13T06:31:28;8.98;;;6.10;;
43990;SDS011;29654;50.784;20.604;2023-03-13T06:36:32;6.60;;;5.32;;
43990;SDS011;29654;50.784;20.604;2023-03-13T06:41:34;6.72;;;5.30;;
43990;SDS011;29654;50.784;20.604;2023-03-13T06:46:37;6.75;;;5.45;;
43990;SDS011;29654;50.784;20.604;2023-03-13T06:51:41;8.05;;;5.05;;
43990;SDS011;29654;50.784;20.604;2023-03-13T06:56:43;5.78;;;5.15;;
43990;SDS011;29654;50.784;20.604;2023-03-13T07:01:46;8.45;;;5.00;;
43990;SDS011;29654;50.784;20.604;2023-03-13T07:06:51;5.22;;;4.72;;
43990;SDS011;29654;50.784;20.604;2023-03-13T07:11:53;5.78;;;5.15;;
43990;SDS011;29654;50.784;20.604;2023-03-13T07:16:57;5.25;;;4.75;;
43990;SDS011;29654;50.784;20.604;2023-03-13T07:22:01;5.97;;;4.70;;
43990;SDS011;29654;50.784;20.604;2023-03-13T07:27:04;5.28;;;4.40;;
43990;SDS011;29654;50.784;20.604;2023-03-13T07:32:07;4.65;;;4.25;;
43990;SDS011;29654;50.784;20.604;2023-03-13T07:37:11;4.90;;;3.70;;
43990;SDS011;29654;50.784;20.604;2023-03-13T07:42:14;4.22;;;3.78;;
43990;SDS011;29654;50.784;20.604;2023-03-13T07:47:16;4.60;;;4.20;;
43990;SDS011;29654;50.784;20.604;2023-03-13T07:52:20;4.20;;;3.80;;
43990;SDS011;29654;50.784;20.604;2023-03-13T07:57:23;5.13;;;3.88;;
43990;SDS011;29654;50.784;20.604;2023-03-13T08:02:25;3.92;;;3.25;;
43990;SDS011;29654;50.784;20.604;2023-03-13T08:07:29;3.78;;;3.15;;
43990;SDS011;29654;50.784;20.604;2023-03-13T08:12:31;4.38;;;3.90;;
43990;SDS011;29654;50.784;20.604;2023-03-13T08:17:34;4.93;;;3.63;;
43990;SDS011;29654;50.784;20.604;2023-03-13T08:22:38;4.30;;;3.45;;
43990;SDS011;29654;50.784;20.604;2023-03-13T08:27:40;4.07;;;3.67;;
43990;SDS011;29654;50.784;20.604;2023-03-13T08:32:43;4.30;;;3.47;;
43990;SDS011;29654;50.784;20.604;2023-03-13T08:37:47;4.72;;;3.55;;
43990;SDS011;29654;50.784;20.604;2023-03-13T08:42:49;4.20;;;3.50;;
43990;SDS011;29654;50.784;20.604;2023-03-13T08:47:52;4.05;;;3.40;;
43990;SDS011;29654;50.784;20.604;2023-03-13T08:52:56;4.57;;;3.83;;
43990;SDS011;29654;50.784;20.604;2023-03-13T08:57:58;4.93;;;3.53;;
43990;SDS011;29654;50.784;20.604;2023-03-13T09:03:01;5.47;;;3.95;;
43990;SDS011;29654;50.784;20.604;2023-03-13T09:08:05;4.85;;;4.05;;
43990;SDS011;29654;50.784;20.604;2023-03-13T09:13:07;6.65;;;4.40;;
43990;SDS011;29654;50.784;20.604;2023-03-13T09:18:10;6.05;;;4.28;;
43990;SDS011;29654;50.784;20.604;2023-03-13T09:23:14;5.22;;;3.38;;
43990;SDS011;29654;50.784;20.604;2023-03-13T09:28:17;5.25;;;3.47;;
43990;SDS011;29654;50.784;20.604;2023-03-13T09:33:20;4.15;;;3.60;;
43990;SDS011;29654;50.784;20.604;2023-03-13T09:38:25;5.30;;;4.00;;
43990;SDS011;29654;50.784;20.604;2023-03-13T09:43:31;4.45;;;3.75;;
43990;SDS011;29654;50.784;20.604;2023-03-13T09:48:42;4.30;;;3.20;;
43990;SDS011;29654;50.784;20.604;2023-03-13T09:53:52;5.95;;;4.20;;
43990;SDS011;29654;50.784;20.604;2023-03-13T09:59:01;5.88;;;3.35;;
43990;SDS011;29654;50.784;20.604;2023-03-13T10:04:20;5.25;;;3.50;;
43990;SDS011;29654;50.784;20.604;2023-03-13T10:09:31;6.72;;;3.53;;
43990;SDS011;29654;50.784;20.604;2023-03-13T10:14:38;5.15;;;3.38;;
43990;SDS011;29654;50.784;20.604;2023-03-13T10:19:44;6.20;;;3.60;;
43990;SDS011;29654;50.784;20.604;2023-03-13T10:24:58;5.10;;;3.38;;
43990;SDS011;29654;50.784;20.604;2023-03-13T10:30:05;5.63;;;3.38;;
43990;SDS011;29654;50.784;20.604;2023-03-13T10:35:21;4.85;;;3.35;;
43990;SDS011;29654;50.784;20.604;2023-03-13T10:40:26;4.57;;;2.90;;
43990;SDS011;29654;50.784;20.604;2023-03-13T10:45:31;4.88;;;3.25;;
43990;SDS011;29654;50.784;20.604;2023-03-13T10:50:35;6.47;;;2.92;;
43990;SDS011;29654;50.784;20.604;2023-03-13T10:55:44;2.88;;;2.25;;
43990;SDS011;29654;50.784;20.604;2023-03-13T11:00:47;5.78;;;3.00;;
43990;SDS011;29654;50.784;20.604;2023-03-13T11:05:54;7.25;;;2.80;;
43990;SDS011;29654;50.784;20.604;2023-03-13T11:10:59;5.30;;;2.33;;
43990;SDS011;29654;50.784;20.604;2023-03-13T11:16:07;5.38;;;2.78;;
43990;SDS011;29654;50.784;20.604;2023-03-13T11:21:31;4.80;;;2.58;;
43990;SDS011;29654;50.784;20.604;2023-03-13T11:26:47;4.22;;;2.05;;
43990;SDS011;29654;50.784;20.604;2023-03-13T11:31:57;4.63;;;2.05;;
43990;SDS011;29654;50.784;20.604;2023-03-13T11:37:08;5.22;;;2.45;;
43990;SDS011;29654;50.784;20.604;2023-03-13T11:42:23;3.55;;;2.30;;
43990;SDS011;29654;50.784;20.604;2023-03-13T11:47:44;3.92;;;2.17;;
43990;SDS011;29654;50.784;20.604;2023-03-13T11:53:01;3.53;;;1.88;;
43990;SDS011;29654;50.784;20.604;2023-03-13T11:58:21;4.57;;;2.10;;
43990;SDS011;29654;50.784;20.604;2023-03-13T12:03:50;3.92;;;2.10;;
43990;SDS011;29654;50.784;20.604;2023-03-13T12:09:00;6.00;;;2.28;;
43990;SDS011;29654;50.784;20.604;2023-03-13T12:14:12;3.08;;;1.80;;
43990;SDS011;29654;50.784;20.604;2023-03-13T12:19:19;3.00;;;1.83;;
43990;SDS011;29654;50.784;20.604;2023-03-13T12:24:30;3.13;;;1.98;;
43990;SDS011;29654;50.784;20.604;2023-03-13T12:29:42;4.28;;;1.83;;
43990;SDS011;29654;50.784;20.604;2023-03-13T12:34:51;4.00;;;2.10;;
43990;SDS011;29654;50.784;20.604;2023-03-13T12:40:02;3.65;;;1.98;;
43990;SDS011;29654;50.784;20.604;2023-03-13T12:45:16;2.45;;;1.65;;
43990;SDS011;29654;50.784;20.604;2023-03-13T12:50:26;5.05;;;2.30;;
43990;SDS011;29654;50.784;20.604;2023-03-13T12:55:54;5.05;;;1.80;;
43990;SDS011;29654;50.784;20.604;2023-03-13T13:01:28;2.58;;;1.50;;
43990;SDS011;29654;50.784;20.604;2023-03-13T13:06:51;2.88;;;1.70;;
43990;SDS011;29654;50.784;20.604;2023-03-13T13:12:01;2.55;;;1.73;;
43990;SDS011;29654;50.784;20.604;2023-03-13T13:17:16;3.38;;;1.70;;
43990;SDS011;29654;50.784;20.604;2023-03-13T13:27:48;3.08;;;1.73;;
43990;SDS011;29654;50.784;20.604;2023-03-13T13:32:52;3.70;;;2.00;;
43990;SDS011;29654;50.784;20.604;2023-03-13T13:43:36;3.47;;;1.90;;
43990;SDS011;29654;50.784;20.604;2023-03-13T13:48:43;3.08;;;1.40;;
43990;SDS011;29654;50.784;20.604;2023-03-13T13:53:46;3.22;;;1.70;;
43990;SDS011;29654;50.784;20.604;2023-03-13T13:58:49;3.00;;;1.67;;
43990;SDS011;29654;50.784;20.604;2023-03-13T14:04:02;2.30;;;1.60;;
43990;SDS011;29654;50.784;20.604;2023-03-13T14:09:16;3.22;;;1.63;;
43990;SDS011;29654;50.784;20.604;2023-03-13T14:14:29;3.30;;;1.73;;
43990;SDS011;29654;50.784;20.604;2023-03-13T14:19:35;1.58;;;1.30;;
43990;SDS011;29654;50.784;20.604;2023-03-13T14:24:47;2.28;;;1.65;;
43990;SDS011;29654;50.784;20.604;2023-03-13T14:30:00;4.78;;;1.83;;
43990;SDS011;29654;50.784;20.604;2023-03-13T14:35:07;2.28;;;1.85;;
43990;SDS011;29654;50.784;20.604;2023-03-13T14:40:18;2.47;;;1.60;;
43990;SDS011;29654;50.784;20.604;2023-03-13T14:45:26;2.35;;;1.65;;
43990;SDS011;29654;50.784;20.604;2023-03-13T14:50:33;2.28;;;2.08;;
43990;SDS011;29654;50.784;20.604;2023-03-13T14:55:36;1.50;;;1.27;;
43990;SDS011;29654;50.784;20.604;2023-03-13T15:00:41;2.75;;;1.67;;
43990;SDS011;29654;50.784;20.604;2023-03-13T15:05:47;1.67;;;1.20;;
43990;SDS011;29654;50.784;20.604;2023-03-13T15:10:51;1.58;;;1.35;;
43990;SDS011;29654;50.784;20.604;2023-03-13T15:15:54;2.42;;;1.48;;
43990;SDS011;29654;50.784;20.604;2023-03-13T15:20:58;2.15;;;1.40;;
43990;SDS011;29654;50.784;20.604;2023-03-13T15:26:21;3.38;;;2.50;;
43990;SDS011;29654;50.784;20.604;2023-03-13T15:31:26;3.80;;;2.22;;
43990;SDS011;29654;50.784;20.604;2023-03-13T15:36:31;2.40;;;1.90;;
43990;SDS011;29654;50.784;20.604;2023-03-13T15:41:33;2.53;;;1.98;;
43990;SDS011;29654;50.784;20.604;2023-03-13T15:46:36;1.65;;;1.52;;
43990;SDS011;29654;50.784;20.604;2023-03-13T15:51:40;1.85;;;1.58;;
43990;SDS011;29654;50.784;20.604;2023-03-13T15:56:43;2.17;;;1.77;;
43990;SDS011;29654;50.784;20.604;2023-03-13T16:01:47;2.55;;;1.80;;
43990;SDS011;29654;50.784;20.604;2023-03-13T16:06:51;3.00;;;2.10;;
43990;SDS011;29654;50.784;20.604;2023-03-13T16:11:53;2.38;;;1.92;;
43990;SDS011;29654;50.784;20.604;2023-03-13T16:16:57;2.85;;;2.13;;
43990;SDS011;29654;50.784;20.604;2023-03-13T16:22:02;3.20;;;2.33;;
43990;SDS011;29654;50.784;20.604;2023-03-13T16:27:10;2.85;;;2.50;;
43990;SDS011;29654;50.784;20.604;2023-03-13T16:32:15;2.42;;;1.88;;
43990;SDS011;29654;50.784;20.604;2023-03-13T16:37:24;2.63;;;2.30;;
43990;SDS011;29654;50.784;20.604;2023-03-13T16:42:27;2.72;;;1.90;;
43990;SDS011;29654;50.784;20.604;2023-03-13T16:47:29;3.17;;;2.25;;
43990;SDS011;29654;50.784;20.604;2023-03-13T16:52:33;2.90;;;2.60;;
43990;SDS011;29654;50.784;20.604;2023-03-13T16:57:36;4.13;;;2.55;;
43990;SDS011;29654;50.784;20.604;2023-03-13T17:02:38;2.72;;;2.30;;
43990;SDS011;29654;50.784;20.604;2023-03-13T17:07:43;4.60;;;3.10;;
43990;SDS011;29654;50.784;20.604;2023-03-13T17:12:47;6.38;;;3.20;;
43990;SDS011;29654;50.784;20.604;2023-03-13T17:17:50;4.32;;;2.63;;
43990;SDS011;29654;50.784;20.604;2023-03-13T17:22:55;2.97;;;2.60;;
43990;SDS011;29654;50.784;20.604;2023-03-13T17:28:00;4.18;;;2.70;;
43990;SDS011;29654;50.784;20.604;2023-03-13T17:33:02;3.53;;;2.70;;
43990;SDS011;29654;50.784;20.604;2023-03-13T17:38:07;3.72;;;3.28;;
43990;SDS011;29654;50.784;20.604;2023-03-13T17:43:10;4.57;;;2.90;;
43990;SDS011;29654;50.784;20.604;2023-03-13T17:48:13;3.83;;;3.00;;
43990;SDS011;29654;50.784;20.604;2023-03-13T17:53:17;4.38;;;2.90;;
43990;SDS011;29654;50.784;20.604;2023-03-13T17:58:20;4.32;;;3.00;;
43990;SDS011;29654;50.784;20.604;2023-03-13T18:03:22;4.47;;;2.72;;
43990;SDS011;29654;50.784;20.604;2023-03-13T18:08:26;4.25;;;3.13;;
43990;SDS011;29654;50.784;20.604;2023-03-13T18:13:29;4.63;;;3.25;;
43990;SDS011;29654;50.784;20.604;2023-03-13T18:18:31;4.43;;;3.25;;
43990;SDS011;29654;50.784;20.604;2023-03-13T18:23:35;4.65;;;3.80;;
43990;SDS011;29654;50.784;20.604;2023-03-13T18:28:38;4.90;;;3.97;;
43990;SDS011;29654;50.784;20.604;2023-03-13T18:33:40;4.38;;;3.97;;
43990;SDS011;29654;50.784;20.604;2023-03-13T18:38:45;5.22;;;4.07;;
43990;SDS011;29654;50.784;20.604;2023-03-13T18:43:49;5.03;;;4.28;;
43990;SDS011;29654;50.784;20.604;2023-03-13T18:48:52;6.05;;;4.50;;
43990;SDS011;29654;50.784;20.604;2023-03-13T18:53:57;5.47;;;4.07;;
43990;SDS011;29654;50.784;20.604;2023-03-13T18:59:00;4.50;;;3.90;;
43990;SDS011;29654;50.784;20.604;2023-03-13T19:04:03;5.53;;;4.10;;
43990;SDS011;29654;50.784;20.604;2023-03-13T19:09:10;6.57;;;4.65;;
43990;SDS011;29654;50.784;20.604;2023-03-13T19:14:15;6.22;;;4.88;;
43990;SDS011;29654;50.784;20.604;2023-03-13T19:19:22;8.07;;;6.25;;
43990;SDS011;29654;50.784;20.604;2023-03-13T19:24:27;9.02;;;5.10;;
43990;SDS011;29654;50.784;20.604;2023-03-13T19:29:30;7.25;;;5.25;;
43990;SDS011;29654;50.784;20.604;2023-03-13T19:34:35;6.80;;;5.13;;
43990;SDS011;29654;50.784;20.604;2023-03-13T19:39:39;7.30;;;5.60;;
43990;SDS011;29654;50.784;20.604;2023-03-13T19:44:43;6.22;;;5.13;;
43990;SDS011;29654;50.784;20.604;2023-03-13T19:49:45;8.75;;;5.80;;
43990;SDS011;29654;50.784;20.604;2023-03-13T19:54:51;6.10;;;5.50;;
43990;SDS011;29654;50.784;20.604;2023-03-13T19:59:55;7.93;;;6.63;;
43990;SDS011;29654;50.784;20.604;2023-03-13T20:04:58;7.95;;;6.05;;
43990;SDS011;29654;50.784;20.604;2023-03-13T20:10:01;7.47;;;6.65;;
43990;SDS011;29654;50.784;20.604;2023-03-13T20:15:06;7.85;;;5.78;;
43990;SDS011;29654;50.784;20.604;2023-03-13T20:20:10;8.20;;;6.07;;
43990;SDS011;29654;50.784;20.604;2023-03-13T20:25:14;7.45;;;5.28;;
43990;SDS011;29654;50.784;20.604;2023-03-13T20:30:17;7.35;;;5.43;;
43990;SDS011;29654;50.784;20.604;2023-03-13T20:35:20;7.50;;;5.40;;
43990;SDS011;29654;50.784;20.604;2023-03-13T20:40:24;5.57;;;4.95;;
43990;SDS011;29654;50.784;20.604;2023-03-13T20:45:27;5.50;;;4.78;;
43990;SDS011;29654;50.784;20.604;2023-03-13T20:50:30;6.40;;;5.68;;
43990;SDS011;29654;50.784;20.604;2023-03-13T20:55:34;7.78;;;6.82;;
43990;SDS011;29654;50.784;20.604;2023-03-13T21:00:38;8.30;;;5.82;;
43990;SDS011;29654;50.784;20.604;2023-03-13T21:05:41;5.93;;;5.00;;
43990;SDS011;29654;50.784;20.604;2023-03-13T21:10:46;9.13;;;6.50;;
43990;SDS011;29654;50.784;20.604;2023-03-13T21:15:48;8.05;;;6.22;;
43990;SDS011;29654;50.784;20.604;2023-03-13T21:20:51;7.88;;;6.07;;
43990;SDS011;29654;50.784;20.604;2023-03-13T21:25:55;7.50;;;6.05;;
43990;SDS011;29654;50.784;20.604;2023-03-13T21:31:05;7.60;;;6.03;;
43990;SDS011;29654;50.784;20.604;2023-03-13T21:36:10;9.43;;;6.43;;
43990;SDS011;29654;50.784;20.604;2023-03-13T21:41:17;8.18;;;6.15;;
43990;SDS011;29654;50.784;20.604;2023-03-13T21:46:21;8.73;;;6.15;;
43990;SDS011;29654;50.784;20.604;2023-03-13T21:51:24;10.27;;;6.53;;
43990;SDS011;29654;50.784;20.604;2023-03-13T21:56:28;8.18;;;5.53;;
43990;SDS011;29654;50.784;20.604;2023-03-13T22:01:30;7.03;;;5.40;;
43990;SDS011;29654;50.784;20.604;2023-03-13T22:06:33;7.15;;;5.63;;
43990;SDS011;29654;50.784;20.604;2023-03-13T22:11:38;7.05;;;4.95;;
43990;SDS011;29654;50.784;20.604;2023-03-13T22:16:40;7.95;;;4.97;;
43990;SDS011;29654;50.784;20.604;2023-03-13T22:21:43;6.03;;;4.20;;
43990;SDS011;29654;50.784;20.604;2023-03-13T22:26:47;5.15;;;4.45;;
43990;SDS011;29654;50.784;20.604;2023-03-13T22:31:50;6.65;;;5.28;;
43990;SDS011;29654;50.784;20.604;2023-03-13T22:36:52;6.07;;;4.85;;
43990;SDS011;29654;50.784;20.604;2023-03-13T22:41:56;7.07;;;4.70;;
43990;SDS011;29654;50.784;20.604;2023-03-13T22:46:59;6.10;;;5.00;;
43990;SDS011;29654;50.784;20.604;2023-03-13T22:52:01;5.82;;;4.53;;
43990;SDS011;29654;50.784;20.604;2023-03-13T22:57:06;6.00;;;5.10;;
43990;SDS011;29654;50.784;20.604;2023-03-13T23:02:08;6.68;;;4.68;;
43990;SDS011;29654;50.784;20.604;2023-03-13T23:07:11;7.38;;;4.78;;
43990;SDS011;29654;50.784;20.604;2023-03-13T23:12:15;10.23;;;6.90;;
43990;SDS011;29654;50.784;20.604;2023-03-13T23:17:17;6.47;;;5.03;;
43990;SDS011;29654;50.784;20.604;2023-03-13T23:22:20;7.90;;;4.85;;
43990;SDS011;29654;50.784;20.604;2023-03-13T23:27:28;4.57;;;4.18;;
43990;SDS011;29654;50.784;20.604;2023-03-13T23:32:34;5.32;;;4.07;;
43990;SDS011;29654;50.784;20.604;2023-03-13T23:37:37;6.57;;;3.90;;
43990;SDS011;29654;50.784;20.604;2023-03-13T23:42:43;5.95;;;4.22;;
43990;SDS011;29654;50.784;20.604;2023-03-13T23:47:46;6.28;;;4.35;;
43990;SDS011;29654;50.784;20.604;2023-03-13T23:52:49;6.68;;;4.70;;
43990;SDS011;29654;50.784;20.604;2023-03-13T23:57:53;5.80;;;4.82;;
